Time;durP1;ratioP1;P1;durP2;ratioP2;P2;SDS_P1;SDS_P2;PMS_P1;PMS_P2;Temp;Humidity;BMP_temperature;BMP_pressure;BME280_temperature;BME280_humidity;BME280_pressure;Samples;Min_cycle;Max_cycle;Signal;HPM_P1;HPM_P2
2023/01/21 00:00:00;;;;;;;14.98;11.20;;;-0.90;99.90;;;;;;4928811;29;20297;-70
2023/01/21 00:02:27;;;;;;;14.23;12.07;;;-0.90;99.90;;;;;;4919045;29;20464;-71
2023/01/21 00:04:55;;;;;;;11.85;10.65;;;-0.80;99.90;;;;;;4919228;29;20535;-70
2023/01/21 00:07:24;;;;;;;12.13;11.02;;;-0.80;99.90;;;;;;4934803;29;20211;-71
2023/01/21 00:09:51;;;;;;;12.40;11.15;;;-0.80;99.90;;;;;;4934776;29;20233;-70
2023/01/21 00:12:18;;;;;;;13.20;11.77;;;-0.80;99.90;;;;;;4919327;29;20222;-70
2023/01/21 00:14:45;;;;;;;11.48;10.35;;;-0.80;99.90;;;;;;4934700;29;20231;-70
2023/01/21 00:17:12;;;;;;;12.48;11.27;;;-0.70;99.90;;;;;;4919731;29;20599;-70
2023/01/21 00:19:39;;;;;;;13.60;11.90;;;-0.70;99.90;;;;;;4928081;29;20300;-70
2023/01/21 00:22:08;;;;;;;12.95;11.57;;;-0.70;99.90;;;;;;4933384;29;20398;-70
2023/01/21 00:24:35;;;;;;;12.57;11.27;;;-0.70;99.90;;;;;;4933718;29;20205;-71
2023/01/21 00:27:02;;;;;;;12.60;11.38;;;-0.70;99.90;;;;;;4927205;29;20204;-70
2023/01/21 00:29:28;;;;;;;14.48;12.13;;;-0.70;99.90;;;;;;4915295;29;20234;-70
2023/01/21 00:31:56;;;;;;;15.77;12.00;;;-0.70;99.90;;;;;;4924583;29;20197;-71
2023/01/21 00:34:22;;;;;;;13.52;11.98;;;-0.70;99.90;;;;;;4915811;29;20201;-70
2023/01/21 00:36:49;;;;;;;13.48;12.07;;;-0.70;99.90;;;;;;4915127;29;20202;-70
2023/01/21 00:39:18;;;;;;;13.85;12.02;;;-0.70;99.90;;;;;;4920809;29;20260;-71
2023/01/21 00:41:45;;;;;;;13.52;12.13;;;-0.70;99.90;;;;;;4925822;29;20206;-71
2023/01/21 00:44:12;;;;;;;13.90;12.13;;;-0.80;99.90;;;;;;4926788;29;20580;-71
2023/01/21 00:46:39;;;;;;;13.57;12.10;;;-0.80;99.90;;;;;;4932703;29;20209;-71
2023/01/21 00:49:06;;;;;;;13.20;12.00;;;-0.80;99.90;;;;;;4929703;29;20260;-71
2023/01/21 00:51:33;;;;;;;15.82;13.30;;;-0.80;99.90;;;;;;4919505;29;20194;-70
2023/01/21 00:54:00;;;;;;;16.02;14.15;;;-0.90;99.90;;;;;;4926636;29;20249;-70
2023/01/21 00:56:29;;;;;;;14.77;13.13;;;-1.00;99.90;;;;;;4931796;29;20601;-71
2023/01/21 00:58:55;;;;;;;15.43;13.48;;;-1.00;99.90;;;;;;4923132;29;20209;-70
2023/01/21 01:01:25;;;;;;;14.48;12.63;;;-1.00;99.90;;;;;;4929112;29;20212;-70
2023/01/21 01:03:52;;;;;;;14.98;13.35;;;-1.10;99.90;;;;;;4934249;29;20276;-71
2023/01/21 01:06:21;;;;;;;15.00;13.50;;;-1.10;99.90;;;;;;4929773;29;20212;-71
2023/01/21 01:08:49;;;;;;;18.00;13.60;;;-1.10;99.90;;;;;;4915556;29;20297;-71
2023/01/21 01:11:17;;;;;;;15.07;13.50;;;-1.10;99.90;;;;;;4933534;29;20201;-70
2023/01/21 01:13:45;;;;;;;15.50;13.90;;;-1.10;99.90;;;;;;4928193;29;20252;-70
2023/01/21 01:16:15;;;;;;;15.30;13.70;;;-1.10;99.90;;;;;;4931864;29;20681;-72
2023/01/21 01:18:42;;;;;;;15.27;13.02;;;-1.20;99.90;;;;;;4933838;29;20236;-70
2023/01/21 01:21:12;;;;;;;15.10;13.52;;;-1.20;99.90;;;;;;4933794;29;20639;-70
2023/01/21 01:23:40;;;;;;;16.38;13.95;;;-1.20;99.90;;;;;;4931151;29;20665;-70
2023/01/21 01:26:09;;;;;;;15.65;13.70;;;-1.20;99.90;;;;;;4916638;29;20304;-71
2023/01/21 01:28:36;;;;;;;16.63;14.82;;;-1.20;99.90;;;;;;4916016;29;20214;-71
2023/01/21 01:31:06;;;;;;;15.73;13.77;;;-1.20;99.90;;;;;;4914604;29;20235;-71
2023/01/21 01:33:33;;;;;;;15.45;13.95;;;-1.20;99.90;;;;;;4930774;29;20240;-71
2023/01/21 01:36:01;;;;;;;17.25;14.15;;;-1.20;99.90;;;;;;4930952;29;20292;-71
2023/01/21 01:38:28;;;;;;;15.27;13.65;;;-1.20;99.90;;;;;;4930933;29;20284;-71
2023/01/21 01:40:56;;;;;;;15.73;14.23;;;-1.20;99.90;;;;;;4928996;29;20291;-71
2023/01/21 01:43:24;;;;;;;16.17;14.57;;;-1.30;99.90;;;;;;4931278;29;20232;-70
2023/01/21 01:45:53;;;;;;;17.73;14.07;;;-1.30;99.90;;;;;;4924457;29;20208;-71
2023/01/21 01:48:26;;;;;;;15.85;13.35;;;-1.30;99.90;;;;;;4924537;29;20216;-71
2023/01/21 01:50:56;;;;;;;14.70;12.50;;;-1.40;99.90;;;;;;4916524;29;20700;-70
2023/01/21 01:53:25;;;;;;;15.57;13.82;;;-1.40;99.90;;;;;;4920986;29;20260;-71
2023/01/21 01:55:52;;;;;;;14.32;12.88;;;-1.50;99.90;;;;;;4932516;29;20284;-70
2023/01/21 01:58:22;;;;;;;15.27;13.75;;;-1.50;99.90;;;;;;4929254;29;20200;-71
2023/01/21 02:00:49;;;;;;;16.48;14.57;;;-1.60;99.90;;;;;;4933400;29;20576;-71
2023/01/21 02:06:04;;;;;;;16.63;14.80;;;-1.50;99.90;;;;;;4931598;29;20566;-71
2023/01/21 02:08:33;;;;;;;17.40;14.35;;;-1.50;99.90;;;;;;4932906;29;20215;-71
2023/01/21 02:11:01;;;;;;;16.50;14.25;;;-1.50;99.90;;;;;;4937209;29;20224;-71
2023/01/21 02:13:32;;;;;;;14.80;13.30;;;-1.30;99.90;;;;;;4936191;29;20225;-71
2023/01/21 02:16:16;;;;;;;16.30;14.20;;;-1.60;99.90;;;;;;4936025;29;20686;-71
2023/01/21 02:18:52;;;;;;;14.45;12.95;;;-1.60;99.90;;;;;;4932977;29;20205;-70
2023/01/21 02:22:04;;;;;;;16.38;14.65;;;-1.60;99.90;;;;;;4928734;29;20624;-71
2023/01/21 02:25:19;;;;;;;16.65;14.07;;;-1.60;99.90;;;;;;4932298;29;20245;-71
2023/01/21 02:28:02;;;;;;;15.55;13.77;;;-1.70;99.90;;;;;;4928556;29;20235;-71
2023/01/21 02:30:55;;;;;;;15.60;13.15;;;-1.70;99.90;;;;;;4934647;29;20230;-71
2023/01/21 02:33:48;;;;;;;14.85;13.35;;;-1.80;99.90;;;;;;4928744;29;20219;-71
2023/01/21 02:36:42;;;;;;;15.00;13.45;;;-1.80;99.90;;;;;;4926970;29;20235;-71
2023/01/21 02:39:15;;;;;;;14.85;13.35;;;-1.80;99.90;;;;;;4925162;29;20257;-71
2023/01/21 02:41:56;;;;;;;15.45;13.90;;;-1.80;99.90;;;;;;4933028;29;20209;-71
2023/01/21 02:44:32;;;;;;;14.73;13.23;;;-1.80;99.90;;;;;;4919888;29;20205;-71
2023/01/21 02:47:05;;;;;;;16.52;13.23;;;-1.80;99.90;;;;;;4929331;29;20569;-70
2023/01/21 02:49:39;;;;;;;17.20;14.30;;;-1.80;99.90;;;;;;4936222;29;20288;-71
2023/01/21 02:52:07;;;;;;;13.95;12.45;;;-1.80;99.90;;;;;;4930720;29;20291;-71
2023/01/21 02:54:49;;;;;;;14.88;13.35;;;-1.80;99.90;;;;;;4934920;29;20256;-71
2023/01/21 02:57:24;;;;;;;15.50;13.90;;;-1.80;99.90;;;;;;4921989;29;20613;-71
2023/01/21 02:59:54;;;;;;;15.23;13.65;;;-1.80;99.90;;;;;;4924948;29;20204;-70
2023/01/21 03:02:33;;;;;;;16.20;12.73;;;-1.80;99.90;;;;;;4933358;29;20648;-70
2023/01/21 03:05:11;;;;;;;16.00;14.23;;;-1.90;99.90;;;;;;4915191;29;20573;-70
2023/01/21 03:07:46;;;;;;;14.30;12.80;;;-1.90;99.90;;;;;;4920778;29;20206;-70
2023/01/21 03:10:23;;;;;;;14.25;11.75;;;-1.90;99.90;;;;;;4918634;29;20715;-71
2023/01/21 03:13:00;;;;;;;14.40;12.80;;;-1.90;99.90;;;;;;4932098;29;20216;-71
2023/01/21 03:18:19;;;;;;;14.65;13.25;;;-2.00;99.90;;;;;;4928637;29;20205;-70
2023/01/21 03:20:52;;;;;;;14.57;13.07;;;-2.00;99.90;;;;;;4920216;29;20256;-70
2023/01/21 03:23:27;;;;;;;15.48;13.00;;;-2.00;99.90;;;;;;4933983;29;20591;-70
2023/01/21 03:25:57;;;;;;;14.13;12.73;;;-2.00;99.90;;;;;;4929364;29;20230;-71
2023/01/21 03:28:26;;;;;;;13.70;12.10;;;-2.00;99.90;;;;;;4934463;29;20252;-71
2023/01/21 03:30:56;;;;;;;13.82;12.32;;;-2.10;99.90;;;;;;4934926;29;20232;-71
2023/01/21 03:33:24;;;;;;;14.98;13.40;;;-2.10;99.90;;;;;;4932071;29;20225;-70
2023/01/21 03:35:55;;;;;;;16.67;13.55;;;-2.10;99.90;;;;;;4929713;29;20205;-71
2023/01/21 03:38:28;;;;;;;15.65;13.95;;;-2.10;99.90;;;;;;4918327;29;20624;-71
2023/01/21 03:41:01;;;;;;;14.80;13.30;;;-2.10;99.90;;;;;;4933846;29;20344;-71
2023/01/21 03:43:28;;;;;;;14.27;12.85;;;-2.10;99.90;;;;;;4934933;29;20593;-70
2023/01/21 03:46:03;;;;;;;15.00;13.35;;;-2.10;99.90;;;;;;4929576;29;20206;-71
2023/01/21 03:48:39;;;;;;;18.23;12.65;;;-2.10;99.90;;;;;;4920007;29;20247;-71
2023/01/21 03:51:13;;;;;;;15.07;13.48;;;-2.10;99.90;;;;;;4918440;29;20891;-71
2023/01/21 03:53:40;;;;;;;14.05;12.55;;;-2.10;99.90;;;;;;4929803;29;20224;-70
2023/01/21 03:56:07;;;;;;;13.85;12.45;;;-2.10;99.90;;;;;;4934668;29;20215;-70
2023/01/21 03:58:34;;;;;;;15.07;13.55;;;-2.10;99.90;;;;;;4930458;29;20383;-71
2023/01/21 04:01:01;;;;;;;14.40;13.02;;;-2.10;99.90;;;;;;4934863;28;20197;-70
2023/01/21 04:03:28;;;;;;;14.70;13.20;;;-2.20;99.90;;;;;;4933211;29;20229;-71
2023/01/21 04:05:55;;;;;;;13.40;12.05;;;-2.10;99.90;;;;;;4923120;29;20663;-70
2023/01/21 04:08:24;;;;;;;15.07;12.27;;;-2.10;99.90;;;;;;4927276;29;20570;-69
2023/01/21 04:10:51;;;;;;;16.25;12.52;;;-2.10;99.90;;;;;;4928853;29;20995;-70
2023/01/21 04:13:18;;;;;;;14.13;12.73;;;-2.10;99.90;;;;;;4931668;29;20311;-70
2023/01/21 04:15:45;;;;;;;14.80;12.85;;;-2.10;99.90;;;;;;4931571;29;20230;-71
2023/01/21 04:18:12;;;;;;;15.52;13.23;;;-2.10;99.90;;;;;;4932478;29;20206;-71
2023/01/21 04:20:39;;;;;;;16.52;12.95;;;-2.10;99.90;;;;;;4932987;29;20685;-71
2023/01/21 04:23:06;;;;;;;14.38;12.65;;;-2.10;99.90;;;;;;4932281;29;20225;-71
2023/01/21 04:25:34;;;;;;;13.95;12.60;;;-2.10;99.90;;;;;;4930202;29;20238;-70
2023/01/21 04:28:01;;;;;;;14.68;13.15;;;-2.10;99.90;;;;;;4921426;29;20216;-71
2023/01/21 04:30:28;;;;;;;15.00;12.77;;;-2.10;99.90;;;;;;4933616;29;20236;-70
2023/01/21 04:32:55;;;;;;;14.57;13.10;;;-2.00;99.90;;;;;;4933089;29;20312;-70
2023/01/21 04:35:22;;;;;;;14.82;13.32;;;-2.00;99.90;;;;;;4932836;29;20206;-71
2023/01/21 04:37:49;;;;;;;14.27;12.95;;;-2.00;99.90;;;;;;4932403;29;20625;-71
2023/01/21 04:40:17;;;;;;;13.93;12.60;;;-2.00;99.90;;;;;;4923081;29;20688;-70
2023/01/21 04:42:45;;;;;;;12.82;11.48;;;-2.00;99.90;;;;;;4927544;29;20221;-71
2023/01/21 04:45:12;;;;;;;14.48;13.13;;;-2.00;99.90;;;;;;4929719;29;20236;-70
2023/01/21 04:47:41;;;;;;;14.38;12.88;;;-2.00;99.90;;;;;;4932832;29;20210;-70
2023/01/21 04:50:09;;;;;;;15.43;12.90;;;-2.00;99.90;;;;;;4926253;29;20262;-70
2023/01/21 04:52:36;;;;;;;13.23;12.00;;;-2.00;99.90;;;;;;4921714;29;20256;-70
2023/01/21 04:55:04;;;;;;;14.18;12.75;;;-2.00;99.90;;;;;;4930960;29;20193;-69
2023/01/21 04:57:31;;;;;;;13.60;12.05;;;-2.00;99.90;;;;;;4933930;29;20212;-69
2023/01/21 04:59:59;;;;;;;16.05;13.25;;;-1.90;99.90;;;;;;4932494;29;20198;-70
2023/01/21 05:02:27;;;;;;;14.13;12.63;;;-2.00;99.90;;;;;;4933793;29;20253;-70
2023/01/21 05:04:54;;;;;;;15.02;13.43;;;-2.00;99.90;;;;;;4930362;29;20203;-70
2023/01/21 05:07:21;;;;;;;16.25;14.55;;;-2.00;99.90;;;;;;4929202;29;20322;-70
2023/01/21 05:09:49;;;;;;;16.00;14.25;;;-2.00;99.90;;;;;;4927905;29;20205;-70
2023/01/21 05:12:16;;;;;;;16.08;14.35;;;-2.00;99.90;;;;;;4931470;29;20319;-70
2023/01/21 05:14:43;;;;;;;15.68;14.07;;;-2.00;99.90;;;;;;4926071;29;20200;-70
2023/01/21 05:17:11;;;;;;;16.35;14.75;;;-2.00;99.90;;;;;;4931147;29;20628;-70
2023/01/21 05:19:38;;;;;;;17.05;15.35;;;-2.00;99.90;;;;;;4926315;29;20216;-70
2023/01/21 05:22:05;;;;;;;16.15;14.55;;;-2.00;99.90;;;;;;4924097;29;20320;-70
2023/01/21 05:24:32;;;;;;;16.88;14.65;;;-2.00;99.90;;;;;;4924505;29;20288;-70
2023/01/21 05:27:00;;;;;;;16.50;14.80;;;-2.10;99.90;;;;;;4932186;29;20207;-71
2023/01/21 05:29:27;;;;;;;18.75;16.50;;;-2.10;99.90;;;;;;4914805;29;20210;-70
2023/01/21 05:31:54;;;;;;;18.85;16.48;;;-2.10;99.90;;;;;;4914671;29;20643;-70
2023/01/21 05:34:22;;;;;;;17.85;16.05;;;-2.10;99.90;;;;;;4915504;29;20201;-70
2023/01/21 05:36:49;;;;;;;20.27;15.35;;;-2.10;99.90;;;;;;4931785;29;20223;-70
2023/01/21 05:39:16;;;;;;;22.65;19.50;;;-2.20;99.90;;;;;;4936849;29;20308;-70
2023/01/21 05:41:44;;;;;;;19.77;17.35;;;-2.10;99.90;;;;;;4937094;29;20235;-69
2023/01/21 05:44:11;;;;;;;20.45;18.23;;;-2.20;99.90;;;;;;4936505;29;20288;-69
2023/01/21 05:46:38;;;;;;;21.45;17.95;;;-2.20;99.90;;;;;;4936897;29;20206;-70
2023/01/21 05:49:05;;;;;;;22.02;19.67;;;-2.20;99.90;;;;;;4925185;29;20201;-70
2023/01/21 05:51:33;;;;;;;23.33;20.20;;;-2.20;99.90;;;;;;4935640;29;20265;-70
2023/01/21 05:54:00;;;;;;;21.90;19.50;;;-2.20;99.90;;;;;;4930835;29;20201;-70
2023/01/21 05:56:27;;;;;;;24.65;20.83;;;-2.10;99.90;;;;;;4933828;29;20209;-70
2023/01/21 05:58:54;;;;;;;25.98;21.60;;;-2.20;99.90;;;;;;4936390;29;20686;-70
2023/01/21 06:01:21;;;;;;;26.80;22.08;;;-2.20;99.90;;;;;;4937517;29;20205;-70
2023/01/21 06:03:48;;;;;;;26.80;22.33;;;-2.20;99.90;;;;;;4927464;29;20375;-70
2023/01/21 06:06:15;;;;;;;26.27;21.70;;;-2.30;99.90;;;;;;4935452;29;20209;-70
2023/01/21 06:08:44;;;;;;;31.40;23.77;;;-2.30;99.90;;;;;;4918709;29;20206;-70
2023/01/21 06:11:11;;;;;;;27.10;22.83;;;-2.30;99.90;;;;;;4926013;29;20600;-71
2023/01/21 06:13:38;;;;;;;29.02;23.42;;;-2.30;99.90;;;;;;4939105;29;20316;-70
2023/01/21 06:16:05;;;;;;;27.75;23.33;;;-2.30;99.90;;;;;;4942058;29;20273;-70
2023/01/21 06:18:32;;;;;;;33.50;24.45;;;-2.30;99.90;;;;;;4940659;29;20288;-70
2023/01/21 06:20:59;;;;;;;27.92;22.08;;;-2.40;99.90;;;;;;4933453;29;20209;-70
2023/01/21 06:23:26;;;;;;;26.45;23.05;;;-2.40;99.90;;;;;;4930869;29;20387;-70
2023/01/21 06:25:59;;;;;;;28.98;24.38;;;-2.40;99.90;;;;;;4926044;29;20211;-70
2023/01/21 06:28:26;;;;;;;28.45;23.88;;;-2.40;99.90;;;;;;4945892;29;20235;-71
2023/01/21 06:30:53;;;;;;;27.50;21.85;;;-2.40;99.90;;;;;;4940326;29;20255;-70
2023/01/21 06:33:20;;;;;;;30.38;23.67;;;-2.40;99.90;;;;;;4935481;29;20245;-70
2023/01/21 06:35:47;;;;;;;33.30;22.90;;;-2.40;99.90;;;;;;4918440;29;20212;-69
2023/01/21 06:38:14;;;;;;;26.33;21.73;;;-2.40;99.90;;;;;;4932926;29;20209;-69
2023/01/21 06:40:42;;;;;;;29.80;22.70;;;-2.40;99.90;;;;;;4922375;29;20208;-70
2023/01/21 06:43:11;;;;;;;30.38;22.70;;;-2.50;99.90;;;;;;4935003;29;20308;-70
2023/01/21 06:45:38;;;;;;;29.95;23.13;;;-2.30;99.90;;;;;;4919970;29;20295;-70
2023/01/21 06:48:05;;;;;;;30.10;22.85;;;-2.50;99.90;;;;;;4932903;29;20303;-70
2023/01/21 06:50:32;;;;;;;32.78;23.13;;;-2.50;99.90;;;;;;4917965;29;20659;-70
2023/01/21 06:52:59;;;;;;;30.25;22.67;;;-2.30;99.90;;;;;;4930829;29;20241;-70
2023/01/21 06:55:26;;;;;;;30.30;21.77;;;-2.30;99.90;;;;;;4934655;29;20291;-70
2023/01/21 06:57:53;;;;;;;26.02;20.73;;;-2.50;99.90;;;;;;4934837;29;20292;-70
2023/01/21 07:00:22;;;;;;;27.17;21.10;;;-2.40;99.90;;;;;;4933082;29;20201;-69
2023/01/21 07:02:49;;;;;;;27.88;21.27;;;-2.40;99.90;;;;;;4928408;29;20229;-69
2023/01/21 07:05:18;;;;;;;27.65;19.95;;;-2.40;99.90;;;;;;4925815;29;20292;-70
2023/01/21 07:07:45;;;;;;;26.13;21.95;;;-2.30;99.90;;;;;;4936050;29;20546;-73
2023/01/21 07:10:12;;;;;;;27.98;21.60;;;-2.30;99.90;;;;;;4926337;29;20201;-72
2023/01/21 07:12:39;;;;;;;25.42;20.25;;;-2.30;99.90;;;;;;4929604;29;20237;-70
2023/01/21 07:15:07;;;;;;;25.85;20.73;;;-2.20;99.90;;;;;;4927464;29;20215;-71
2023/01/21 07:17:36;;;;;;;26.30;20.52;;;-2.20;99.90;;;;;;4919552;29;20605;-70
2023/01/21 07:20:03;;;;;;;25.73;20.70;;;-2.20;99.90;;;;;;4920624;29;20665;-70
2023/01/21 07:22:32;;;;;;;26.80;19.88;;;-2.20;99.90;;;;;;4919003;29;20261;-72
2023/01/21 07:24:59;;;;;;;22.35;18.48;;;-2.10;99.90;;;;;;4918532;29;20204;-72
2023/01/21 07:27:26;;;;;;;26.98;19.98;;;-2.10;99.90;;;;;;4931337;29;20671;-72
2023/01/21 07:29:53;;;;;;;25.23;18.58;;;-2.10;99.90;;;;;;4933605;29;20218;-72
2023/01/21 07:32:20;;;;;;;24.85;18.60;;;-2.00;99.90;;;;;;4934243;29;20728;-71
2023/01/21 07:34:49;;;;;;;27.08;20.02;;;-2.00;99.90;;;;;;4933511;29;20236;-71
2023/01/21 07:37:16;;;;;;;25.70;21.23;;;-2.00;99.90;;;;;;4926420;29;20622;-71
2023/01/21 07:39:42;;;;;;;25.17;20.17;;;-1.90;99.90;;;;;;4928669;29;20229;-70
2023/01/21 07:42:10;;;;;;;21.75;17.35;;;-1.90;99.90;;;;;;4928281;29;20649;-71
2023/01/21 07:44:37;;;;;;;22.60;18.17;;;-1.80;99.90;;;;;;4935288;29;20244;-71
2023/01/21 07:47:04;;;;;;;23.80;19.13;;;-1.80;99.90;;;;;;4931749;29;20201;-72
2023/01/21 07:49:31;;;;;;;22.50;18.50;;;-1.80;99.90;;;;;;4934815;29;20669;-71
2023/01/21 07:52:00;;;;;;;22.45;16.70;;;-1.80;99.90;;;;;;4933887;29;20229;-71
2023/01/21 07:54:27;;;;;;;24.27;18.00;;;-1.80;99.90;;;;;;4925242;29;20670;-71
2023/01/21 07:56:54;;;;;;;22.40;17.38;;;-1.70;99.90;;;;;;4931008;29;20205;-71
2023/01/21 07:59:21;;;;;;;21.17;17.25;;;-1.70;99.90;;;;;;4923655;29;20277;-70
2023/01/21 08:01:47;;;;;;;22.13;17.98;;;-1.60;99.90;;;;;;4919287;29;20225;-71
2023/01/21 08:04:15;;;;;;;24.00;18.35;;;-1.60;99.90;;;;;;4936778;29;20303;-71
2023/01/21 08:06:42;;;;;;;23.55;17.90;;;-1.50;99.90;;;;;;4930330;29;20235;-71
2023/01/21 08:09:10;;;;;;;24.10;16.83;;;-1.50;99.90;;;;;;4929529;29;20723;-70
2023/01/21 08:11:37;;;;;;;20.65;16.77;;;-1.50;99.90;;;;;;4932802;29;20883;-70
2023/01/21 08:14:04;;;;;;;22.70;17.40;;;-1.40;99.90;;;;;;4931139;29;20564;-70
2023/01/21 08:16:31;;;;;;;19.90;15.32;;;-1.40;99.90;;;;;;4930281;29;20201;-72
2023/01/21 08:18:58;;;;;;;19.92;15.25;;;-1.40;99.90;;;;;;4916718;29;20217;-70
2023/01/21 08:21:25;;;;;;;22.80;16.50;;;-1.40;99.90;;;;;;4929570;29;20571;-70
2023/01/21 08:23:52;;;;;;;21.60;16.40;;;-1.30;99.90;;;;;;4919718;29;20201;-71
2023/01/21 08:26:21;;;;;;;20.23;16.63;;;-1.30;99.90;;;;;;4927595;29;20207;-71
2023/01/21 08:28:48;;;;;;;19.55;15.30;;;-1.30;99.90;;;;;;4934238;29;20197;-70
2023/01/21 08:31:15;;;;;;;20.88;16.23;;;-1.30;99.90;;;;;;4932862;29;20212;-70
2023/01/21 08:33:42;;;;;;;19.30;14.57;;;-1.30;99.90;;;;;;4932863;29;20205;-71
2023/01/21 08:36:10;;;;;;;20.33;15.73;;;-1.30;99.90;;;;;;4927616;29;20237;-71
2023/01/21 08:38:38;;;;;;;21.05;16.95;;;-1.20;99.90;;;;;;4940514;29;20239;-71
2023/01/21 08:41:06;;;;;;;19.00;14.73;;;-1.10;99.90;;;;;;4920048;29;20212;-71
2023/01/21 08:43:34;;;;;;;20.98;15.85;;;-1.10;99.90;;;;;;4923842;29;20205;-71
2023/01/21 08:46:01;;;;;;;23.02;17.20;;;-1.00;99.90;;;;;;4924977;29;20197;-71
2023/01/21 08:48:29;;;;;;;22.25;16.67;;;-1.00;99.90;;;;;;4930252;29;20664;-70
2023/01/21 08:50:58;;;;;;;19.13;15.52;;;-1.00;99.90;;;;;;4921848;29;20201;-71
2023/01/21 08:53:25;;;;;;;21.27;16.90;;;-0.90;99.90;;;;;;4927127;29;20233;-71
2023/01/21 08:55:52;;;;;;;21.63;16.10;;;-0.90;99.90;;;;;;4932015;29;20209;-70
2023/01/21 08:58:19;;;;;;;20.38;16.30;;;-0.80;99.90;;;;;;4925938;29;20212;-70
2023/01/21 09:00:50;;;;;;;19.17;15.18;;;-0.80;99.90;;;;;;4924541;29;20654;-70
2023/01/21 09:03:18;;;;;;;18.85;14.05;;;-0.70;99.90;;;;;;4931182;29;20264;-71
2023/01/21 09:05:45;;;;;;;19.38;15.18;;;-0.60;99.90;;;;;;4921509;29;20201;-71
2023/01/21 09:08:12;;;;;;;20.20;15.80;;;-0.60;99.90;;;;;;4930272;29;20201;-70
2023/01/21 09:13:24;;;;;;;21.58;15.00;;;-0.50;99.90;;;;;;4925284;29;20593;-70
2023/01/21 09:15:53;;;;;;;17.95;15.30;;;-0.40;99.90;;;;;;4926627;29;20658;-71
2023/01/21 09:18:20;;;;;;;19.40;14.93;;;-0.40;99.90;;;;;;4930432;29;20251;-70
2023/01/21 09:20:47;;;;;;;19.73;15.10;;;-0.30;99.90;;;;;;4923932;29;20213;-70
2023/01/21 09:23:26;;;;;;;20.67;16.50;;;-0.30;99.90;;;;;;4930058;29;20225;-71
2023/01/21 09:25:55;;;;;;;21.13;14.63;;;-0.30;99.90;;;;;;4933290;29;20420;-71
2023/01/21 09:28:23;;;;;;;18.20;14.52;;;-0.20;99.90;;;;;;4928561;29;20216;-71
2023/01/21 09:30:57;;;;;;;23.10;17.00;;;-0.20;99.90;;;;;;4937526;29;20284;-70
2023/01/21 09:33:25;;;;;;;19.88;14.90;;;-0.10;99.90;;;;;;4935634;29;20232;-71
2023/01/21 09:35:53;;;;;;;21.25;15.05;;;0.00;99.90;;;;;;4922964;29;20674;-71
2023/01/21 09:38:20;;;;;;;20.27;15.68;;;0.00;99.90;;;;;;4933937;29;20209;-69
2023/01/21 09:40:47;;;;;;;20.23;15.60;;;0.10;99.90;;;;;;4932884;29;20201;-69
2023/01/21 09:43:22;;;;;;;20.13;15.20;;;0.20;99.90;;;;;;4923734;29;20284;-71
2023/01/21 09:45:52;;;;;;;18.60;15.00;;;0.20;99.90;;;;;;4924748;29;20930;-69
2023/01/21 09:48:28;;;;;;;19.20;14.80;;;0.40;99.90;;;;;;4912242;29;20570;-69
2023/01/21 09:50:57;;;;;;;22.75;16.30;;;0.40;99.90;;;;;;4921272;29;20201;-69
2023/01/21 09:53:32;;;;;;;21.40;14.73;;;0.50;99.90;;;;;;4924979;29;20225;-69
2023/01/21 09:56:02;;;;;;;21.10;14.73;;;0.60;99.90;;;;;;4932918;29;20228;-69
2023/01/21 09:58:36;;;;;;;18.77;15.00;;;0.60;99.90;;;;;;4931311;29;20645;-69
2023/01/21 10:01:08;;;;;;;18.60;14.98;;;0.60;99.90;;;;;;4930945;29;20200;-70
2023/01/21 10:03:44;;;;;;;20.23;15.57;;;0.70;99.90;;;;;;4935738;29;20297;-70
2023/01/21 10:06:37;;;;;;;20.73;15.52;;;0.80;99.90;;;;;;4919094;29;20714;-70
2023/01/21 10:09:40;;;;;;;19.27;14.93;;;0.80;99.90;;;;;;4923524;29;20922;-70
2023/01/21 10:12:26;;;;;;;19.30;15.40;;;0.70;99.90;;;;;;4916972;29;20237;-70
2023/01/21 10:15:30;;;;;;;18.90;13.95;;;0.70;99.90;;;;;;4928744;29;20203;-70
2023/01/21 10:18:01;;;;;;;20.95;15.20;;;0.70;99.90;;;;;;4888241;29;20224;-70
2023/01/21 10:20:33;;;;;;;20.58;16.20;;;0.80;99.90;;;;;;4928167;29;20557;-70
2023/01/21 10:23:05;;;;;;;20.98;16.05;;;0.80;99.90;;;;;;4917180;29;20687;-71
2023/01/21 10:25:35;;;;;;;18.48;15.25;;;0.80;99.90;;;;;;4919945;29;20220;-69
2023/01/21 10:28:09;;;;;;;20.30;15.27;;;0.80;99.90;;;;;;4926843;29;20219;-70
2023/01/21 10:30:39;;;;;;;20.50;15.18;;;0.90;99.90;;;;;;4932811;29;20197;-70
2023/01/21 10:33:12;;;;;;;19.60;16.08;;;0.90;99.90;;;;;;4934094;29;20221;-71
2023/01/21 10:35:58;;;;;;;17.63;14.82;;;0.90;99.90;;;;;;4931084;29;20222;-70
2023/01/21 10:38:34;;;;;;;17.77;14.20;;;0.90;99.90;;;;;;4926026;29;20204;-69
2023/01/21 10:41:20;;;;;;;18.85;14.65;;;0.80;99.90;;;;;;4930316;29;20193;-70
2023/01/21 10:43:55;;;;;;;18.63;16.08;;;0.70;99.90;;;;;;4929667;29;20681;-70
2023/01/21 10:46:29;;;;;;;18.15;14.40;;;0.70;99.90;;;;;;4934319;28;20202;-70
2023/01/21 10:49:06;;;;;;;20.52;16.02;;;0.70;99.90;;;;;;4929115;29;20723;-70
2023/01/21 10:51:40;;;;;;;20.00;15.20;;;0.70;99.90;;;;;;4929987;29;20226;-70
2023/01/21 10:54:18;;;;;;;18.38;14.93;;;0.50;99.90;;;;;;4932292;29;20636;-69
2023/01/21 10:56:51;;;;;;;18.70;14.98;;;0.80;99.90;;;;;;4933095;29;20672;-70
2023/01/21 10:59:22;;;;;;;16.73;13.70;;;0.90;99.90;;;;;;4935794;29;20610;-69
2023/01/21 11:01:52;;;;;;;18.50;14.25;;;1.00;99.90;;;;;;4932193;29;20217;-69
2023/01/21 11:04:21;;;;;;;18.23;15.27;;;1.10;99.90;;;;;;4931505;29;20617;-70
2023/01/21 11:06:58;;;;;;;19.15;15.73;;;1.10;99.90;;;;;;4933943;29;20684;-70
2023/01/21 11:09:28;;;;;;;18.95;14.57;;;1.20;99.90;;;;;;4923661;29;20255;-70
2023/01/21 11:11:55;;;;;;;19.27;15.07;;;1.20;99.90;;;;;;4932828;29;20252;-69
2023/01/21 11:14:24;;;;;;;18.65;15.20;;;1.30;99.90;;;;;;4932269;29;20234;-70
2023/01/21 11:16:53;;;;;;;18.38;14.68;;;1.30;99.90;;;;;;4923672;29;20260;-70
2023/01/21 11:19:23;;;;;;;18.17;14.48;;;1.40;99.90;;;;;;4918452;29;20889;-71
2023/01/21 11:22:03;;;;;;;17.60;13.00;;;1.50;99.90;;;;;;4925014;29;20603;-71
2023/01/21 11:24:32;;;;;;;15.43;13.68;;;1.60;99.90;;;;;;4918906;29;20362;-70
2023/01/21 11:27:01;;;;;;;16.83;13.45;;;1.90;99.90;;;;;;4933830;29;20262;-71
2023/01/21 11:29:39;;;;;;;18.02;14.20;;;2.10;99.90;;;;;;4930420;29;20621;-70
2023/01/21 11:32:17;;;;;;;15.32;13.73;;;2.30;99.90;;;;;;4934921;29;20229;-71
2023/01/21 11:34:46;;;;;;;16.10;14.02;;;2.50;99.90;;;;;;4933748;29;20276;-71
2023/01/21 11:37:22;;;;;;;15.45;13.00;;;2.60;99.90;;;;;;4931894;29;20203;-70
2023/01/21 11:39:52;;;;;;;16.00;13.68;;;2.60;99.90;;;;;;4929391;29;20621;-71
2023/01/21 11:42:20;;;;;;;19.35;13.70;;;2.70;99.90;;;;;;4928815;29;20355;-71
2023/01/21 11:44:52;;;;;;;14.90;13.40;;;2.70;99.90;;;;;;4927944;29;20208;-71
2023/01/21 11:47:47;;;;;;;15.20;13.30;;;2.60;99.90;;;;;;4934729;29;20290;-71
2023/01/21 11:50:16;;;;;;;15.80;12.35;;;2.60;99.90;;;;;;4923060;29;20664;-71
2023/01/21 11:52:44;;;;;;;16.67;13.50;;;2.60;99.90;;;;;;4933402;29;20239;-71
2023/01/21 11:55:21;;;;;;;16.23;12.45;;;2.60;99.90;;;;;;4934633;29;20202;-70
2023/01/21 11:57:52;;;;;;;15.77;13.43;;;2.50;99.90;;;;;;4933381;29;21858;-71
2023/01/21 12:00:21;;;;;;;14.48;12.82;;;2.40;99.90;;;;;;4919971;29;20204;-70
2023/01/21 12:02:51;;;;;;;14.95;13.13;;;2.20;99.90;;;;;;4928196;29;20237;-71
2023/01/21 12:05:26;;;;;;;17.23;12.40;;;2.20;99.90;;;;;;4932901;29;20276;-70
2023/01/21 12:07:55;;;;;;;19.42;12.85;;;2.10;99.90;;;;;;4934265;29;20287;-71
2023/01/21 12:10:28;;;;;;;16.73;12.60;;;2.00;99.90;;;;;;4923195;29;20232;-71
2023/01/21 12:13:18;;;;;;;16.15;13.75;;;2.00;99.90;;;;;;4931844;29;20233;-71
2023/01/21 12:16:02;;;;;;;16.90;13.90;;;1.90;99.90;;;;;;4931070;29;20304;-70
2023/01/21 12:18:40;;;;;;;16.25;13.40;;;1.70;99.90;;;;;;4931136;29;20201;-71
2023/01/21 12:21:16;;;;;;;15.25;13.30;;;1.70;99.90;;;;;;4926989;29;20732;-71
2023/01/21 12:24:01;;;;;;;18.70;14.07;;;1.60;99.90;;;;;;4916320;29;20209;-70
2023/01/21 12:26:36;;;;;;;19.67;13.55;;;1.50;99.90;;;;;;4923251;29;20609;-71
2023/01/21 12:29:28;;;;;;;14.80;12.20;;;1.50;99.90;;;;;;4928872;29;20201;-71
2023/01/21 12:32:00;;;;;;;16.20;12.27;;;1.60;99.90;;;;;;4925915;29;20221;-71
2023/01/21 12:34:34;;;;;;;15.93;13.27;;;1.60;99.90;;;;;;4922986;29;20295;-71
2023/01/21 12:37:04;;;;;;;14.23;12.27;;;1.60;99.90;;;;;;4924867;29;20443;-71
2023/01/21 12:39:36;;;;;;;14.00;12.27;;;1.70;99.90;;;;;;4933054;29;20291;-71
2023/01/21 12:42:11;;;;;;;15.85;13.43;;;1.70;99.90;;;;;;4927408;29;20238;-71
2023/01/21 12:44:45;;;;;;;18.55;14.73;;;1.70;99.90;;;;;;4933222;29;20209;-71
2023/01/21 12:47:19;;;;;;;14.73;13.13;;;1.70;99.90;;;;;;4931127;29;20240;-71
2023/01/21 12:50:03;;;;;;;16.10;12.90;;;1.70;99.90;;;;;;4923514;29;20694;-71
2023/01/21 12:52:38;;;;;;;16.05;13.07;;;1.70;99.90;;;;;;4923563;29;20221;-71
2023/01/21 12:55:18;;;;;;;16.90;13.82;;;1.80;99.90;;;;;;4931374;29;20212;-73